Time;durP1;ratioP1;P1;durP2;ratioP2;P2;SDS_P1;SDS_P2;PMS_P1;PMS_P2;Temp;Humidity;BMP_temperature;BMP_pressure;BME280_temperature;BME280_humidity;BME280_pressure;Samples;Min_cycle;Max_cycle;Signal;HPM_P1;HPM_P2
2022/07/29 00:00:44;;;;;;;0.90;0.90;;;21.50;75.30;;;;;;5093964;28;20043;-66
2022/07/29 00:03:11;;;;;;;0.80;0.80;;;21.50;75.40;;;;;;5112655;28;20088;-66
2022/07/29 00:05:39;;;;;;;1.85;1.10;;;21.50;76.40;;;;;;5112273;28;20051;-68
2022/07/29 00:08:05;;;;;;;4.00;1.42;;;21.30;75.90;;;;;;5112382;28;20031;-66
2022/07/29 00:10:31;;;;;;;2.53;1.10;;;21.10;76.00;;;;;;5112427;28;20039;-66
2022/07/29 00:12:57;;;;;;;0.93;0.80;;;21.10;76.20;;;;;;5112172;28;20051;-66
2022/07/29 00:15:23;;;;;;;2.92;1.00;;;21.10;76.30;;;;;;5112048;28;20209;-66
2022/07/29 00:17:48;;;;;;;7.78;1.13;;;21.00;76.50;;;;;;5112225;28;20072;-67
2022/07/29 00:20:14;;;;;;;2.10;1.27;;;20.90;76.80;;;;;;5112048;28;20074;-67
2022/07/29 00:22:40;;;;;;;2.47;1.08;;;20.90;77.10;;;;;;5112295;28;20039;-66
2022/07/29 00:25:07;;;;;;;5.25;1.08;;;20.90;77.10;;;;;;5111710;28;20035;-66
2022/07/29 00:27:33;;;;;;;0.95;0.85;;;20.90;77.20;;;;;;5112141;28;20048;-67
2022/07/29 00:29:59;;;;;;;2.55;1.17;;;20.90;77.10;;;;;;5111880;28;20135;-67
2022/07/29 00:32:25;;;;;;;2.67;1.15;;;20.90;77.30;;;;;;5114109;28;20526;-66
2022/07/29 00:37:35;;;;;;;3.45;1.00;;;20.80;77.30;;;;;;5115753;28;20866;-66
2022/07/29 00:40:01;;;;;;;1.90;1.05;;;20.80;77.20;;;;;;5115837;28;20047;-67
2022/07/29 00:42:27;;;;;;;1.35;0.90;;;20.80;76.70;;;;;;5116038;28;20516;-66
2022/07/29 00:44:53;;;;;;;3.20;1.27;;;20.90;76.70;;;;;;5097309;28;21403;-66
2022/07/29 00:47:18;;;;;;;1.58;1.10;;;21.00;76.70;;;;;;5116091;28;20043;-67
2022/07/29 00:49:44;;;;;;;1.88;1.00;;;21.00;76.90;;;;;;5116049;28;20031;-66
2022/07/29 00:52:11;;;;;;;1.00;0.90;;;20.90;76.90;;;;;;5116025;28;20078;-67
2022/07/29 00:54:39;;;;;;;2.08;0.95;;;20.90;76.50;;;;;;5097915;28;20032;-68
2022/07/29 00:57:07;;;;;;;3.63;1.02;;;20.90;77.30;;;;;;5097439;28;20036;-66
2022/07/29 00:59:33;;;;;;;1.13;1.02;;;20.70;77.40;;;;;;5115791;28;20056;-66
2022/07/29 01:01:59;;;;;;;2.45;1.20;;;20.70;77.10;;;;;;5097544;28;20035;-69
2022/07/29 01:04:25;;;;;;;1.77;1.08;;;20.50;77.20;;;;;;5115713;28;20040;-68
2022/07/29 01:06:53;;;;;;;2.13;0.90;;;20.20;78.40;;;;;;5115707;28;20406;-66
2022/07/29 01:09:19;;;;;;;1.40;1.02;;;20.60;76.70;;;;;;5112823;28;20046;-67
2022/07/29 01:11:48;;;;;;;2.95;1.20;;;20.80;75.90;;;;;;5115515;28;20088;-66
2022/07/29 01:14:15;;;;;;;3.83;1.20;;;21.00;75.10;;;;;;5115513;28;20055;-66
2022/07/29 01:16:54;;;;;;;1.45;0.77;;;20.90;75.50;;;;;;5115491;28;20090;-67
2022/07/29 01:19:45;;;;;;;1.85;1.10;;;20.80;75.80;;;;;;5112838;28;20093;-67
2022/07/29 01:22:14;;;;;;;1.77;0.80;;;20.80;75.90;;;;;;5114354;28;20040;-68
2022/07/29 01:25:08;;;;;;;1.63;1.00;;;20.80;76.30;;;;;;5094463;28;20398;-68
2022/07/29 01:28:07;;;;;;;2.58;1.25;;;20.70;76.50;;;;;;5114580;28;20047;-66
2022/07/29 01:30:36;;;;;;;2.97;0.90;;;20.80;77.10;;;;;;5074541;28;20724;-66
2022/07/29 01:33:06;;;;;;;3.40;1.13;;;20.80;76.30;;;;;;5115238;28;20079;-66
2022/07/29 01:35:38;;;;;;;2.70;0.98;;;20.70;77.10;;;;;;5115038;28;20070;-66
2022/07/29 01:38:12;;;;;;;1.80;1.00;;;20.60;77.30;;;;;;5112822;28;20574;-66
2022/07/29 01:40:52;;;;;;;1.40;1.10;;;20.60;77.20;;;;;;5115031;28;20077;-66
2022/07/29 01:43:38;;;;;;;3.85;1.10;;;20.60;76.90;;;;;;5111397;28;20383;-66
2022/07/29 01:46:13;;;;;;;4.72;1.00;;;20.70;76.60;;;;;;5094699;28;20067;-66
2022/07/29 01:48:52;;;;;;;2.28;1.42;;;20.80;75.90;;;;;;5112365;28;20498;-66
2022/07/29 01:51:23;;;;;;;1.55;1.10;;;20.80;75.60;;;;;;5112067;28;20471;-67
2022/07/29 01:54:14;;;;;;;3.97;1.23;;;20.90;75.20;;;;;;5114950;28;20044;-66
2022/07/29 01:56:43;;;;;;;2.60;1.08;;;21.00;75.40;;;;;;5112366;28;20065;-66
2022/07/29 01:59:10;;;;;;;3.42;1.30;;;21.10;76.00;;;;;;5114815;28;20073;-66
2022/07/29 02:01:39;;;;;;;1.90;0.90;;;21.00;75.60;;;;;;5114324;28;20047;-66
2022/07/29 02:04:07;;;;;;;6.88;1.52;;;20.90;75.90;;;;;;5114685;28;20510;-67
2022/07/29 02:06:36;;;;;;;1.17;0.93;;;20.80;77.00;;;;;;5114725;28;20034;-68
2022/07/29 02:09:03;;;;;;;1.63;0.95;;;20.80;76.90;;;;;;5128186;27;20550;-68
2022/07/29 02:11:31;;;;;;;2.65;1.00;;;20.50;77.60;;;;;;5096244;28;20069;-67
2022/07/29 02:13:58;;;;;;;1.65;0.98;;;20.60;77.40;;;;;;5114435;28;20130;-67
2022/07/29 02:16:28;;;;;;;1.85;1.10;;;20.70;78.40;;;;;;5114592;28;20042;-66
2022/07/29 02:18:55;;;;;;;1.98;0.80;;;20.70;77.70;;;;;;5114284;28;20048;-66
2022/07/29 02:21:24;;;;;;;3.05;1.00;;;20.50;78.50;;;;;;5114225;28;20522;-74
2022/07/29 02:23:52;;;;;;;1.25;0.85;;;20.20;79.00;;;;;;5096409;28;20052;-66
2022/07/29 02:26:22;;;;;;;1.42;0.90;;;20.30;80.10;;;;;;5111455;28;20173;-68
2022/07/29 02:28:51;;;;;;;2.15;1.30;;;20.10;79.60;;;;;;5095799;28;20042;-67
2022/07/29 02:31:20;;;;;;;2.42;1.30;;;20.00;80.40;;;;;;5113761;28;20048;-74
2022/07/29 02:33:48;;;;;;;1.58;1.05;;;19.70;80.70;;;;;;5113992;28;20047;-74
2022/07/29 02:36:15;;;;;;;1.65;0.95;;;19.80;80.30;;;;;;5095573;28;20059;-66
2022/07/29 02:38:52;;;;;;;1.20;1.08;;;20.00;79.90;;;;;;5113981;28;20088;-73
2022/07/29 02:41:30;;;;;;;1.42;1.00;;;19.80;80.20;;;;;;5113719;28;20110;-67
2022/07/29 02:44:06;;;;;;;4.65;1.10;;;20.00;79.80;;;;;;5113813;28;20157;-66
2022/07/29 02:46:34;;;;;;;1.92;1.15;;;20.20;79.00;;;;;;5113828;28;20122;-66
2022/07/29 02:49:22;;;;;;;2.38;1.10;;;20.40;78.80;;;;;;5107699;28;20398;-67
2022/07/29 02:51:58;;;;;;;3.08;1.13;;;20.50;78.60;;;;;;5111319;28;20051;-67
2022/07/29 02:54:37;;;;;;;1.77;0.95;;;20.60;77.30;;;;;;5110763;28;20047;-67
2022/07/29 02:57:14;;;;;;;1.50;0.80;;;20.50;77.50;;;;;;5111133;28;20138;-66
2022/07/29 02:59:42;;;;;;;1.35;1.00;;;20.30;78.80;;;;;;5109254;28;20092;-66
2022/07/29 03:02:10;;;;;;;1.80;0.93;;;20.40;78.70;;;;;;5112563;28;20047;-67
2022/07/29 03:04:36;;;;;;;1.60;0.98;;;20.30;78.90;;;;;;5113144;28;20030;-67
2022/07/29 03:07:04;;;;;;;5.07;1.10;;;20.10;79.70;;;;;;5112560;28;20067;-66
2022/07/29 03:09:31;;;;;;;3.72;1.25;;;19.80;80.80;;;;;;5113580;28;20073;-67
2022/07/29 03:11:57;;;;;;;1.77;1.10;;;19.50;81.50;;;;;;5109409;28;20062;-68
2022/07/29 03:14:24;;;;;;;4.20;1.15;;;19.50;81.80;;;;;;5113114;28;20031;-67
2022/07/29 03:16:51;;;;;;;1.90;1.10;;;19.60;81.40;;;;;;5113264;28;20039;-66
2022/07/29 03:19:18;;;;;;;1.63;0.90;;;19.60;80.80;;;;;;5094881;28;20034;-66
2022/07/29 03:21:44;;;;;;;1.10;0.90;;;19.60;81.00;;;;;;5114049;28;20640;-67
2022/07/29 03:24:10;;;;;;;1.77;1.02;;;19.50;81.30;;;;;;5114241;28;20138;-67
2022/07/29 03:26:36;;;;;;;2.28;0.75;;;19.60;81.30;;;;;;5113745;28;20054;-67
2022/07/29 03:29:01;;;;;;;2.85;1.20;;;19.70;80.50;;;;;;5113874;28;20401;-70
2022/07/29 03:31:27;;;;;;;5.25;1.05;;;19.90;79.50;;;;;;5113947;28;20055;-67
2022/07/29 03:33:53;;;;;;;1.88;1.05;;;20.00;79.60;;;;;;5113814;28;20042;-67
2022/07/29 03:36:18;;;;;;;0.95;0.85;;;20.10;80.10;;;;;;5113857;28;20035;-68
2022/07/29 03:38:45;;;;;;;1.83;1.10;;;20.10;80.40;;;;;;5095767;28;20541;-67
2022/07/29 03:41:12;;;;;;;1.42;1.10;;;20.10;80.20;;;;;;5114043;28;20039;-66
2022/07/29 03:43:41;;;;;;;9.32;1.23;;;20.00;80.60;;;;;;5113923;28;20452;-66
2022/07/29 03:46:08;;;;;;;2.08;1.10;;;19.90;80.20;;;;;;5113554;28;20048;-71
2022/07/29 03:48:39;;;;;;;1.73;1.10;;;19.70;80.60;;;;;;5113812;28;20046;-67
2022/07/29 03:51:05;;;;;;;;;;;19.60;81.10;;;;;;5113920;28;20039;-67
2022/07/29 03:53:32;;;;;;;1.65;1.40;;;19.60;81.50;;;;;;5113710;28;20696;-67
2022/07/29 03:56:01;;;;;;;3.47;1.40;;;19.50;81.60;;;;;;5113890;28;20047;-66
2022/07/29 03:58:27;;;;;;;3.63;1.27;;;19.50;81.30;;;;;;5113739;28;20039;-67
2022/07/29 04:00:55;;;;;;;2.10;1.30;;;19.60;81.50;;;;;;5113837;28;20134;-66
2022/07/29 04:03:21;;;;;;;2.63;1.30;;;19.60;80.80;;;;;;5113707;28;20039;-70
2022/07/29 04:06:01;;;;;;;1.55;1.25;;;19.80;79.90;;;;;;5113493;28;20086;-72
2022/07/29 04:08:27;;;;;;;1.90;1.13;;;20.00;79.70;;;;;;5113441;28;20039;-68
2022/07/29 04:10:53;;;;;;;2.63;1.33;;;20.00;80.10;;;;;;5113502;28;20096;-67
2022/07/29 04:13:20;;;;;;;1.48;1.23;;;20.00;79.70;;;;;;5113327;28;20047;-69
2022/07/29 04:15:46;;;;;;;5.72;1.40;;;20.00;79.70;;;;;;5113248;28;20040;-67
2022/07/29 04:18:11;;;;;;;1.23;1.00;;;20.10;79.50;;;;;;5113415;28;20049;-67
2022/07/29 04:20:37;;;;;;;3.45;1.20;;;20.20;79.30;;;;;;5113646;28;20426;-68
2022/07/29 04:23:03;;;;;;;8.13;1.10;;;20.30;79.70;;;;;;5113421;28;20043;-67
2022/07/29 04:25:29;;;;;;;1.65;1.00;;;20.20;79.10;;;;;;5113546;28;20116;-70
2022/07/29 04:28:00;;;;;;;3.53;1.35;;;20.40;78.00;;;;;;5113439;28;20092;-67
2022/07/29 04:30:27;;;;;;;2.78;1.13;;;20.50;77.50;;;;;;5095167;28;20035;-70
2022/07/29 04:32:53;;;;;;;1.35;0.85;;;20.60;77.20;;;;;;5095132;28;20056;-67
2022/07/29 04:35:19;;;;;;;1.95;1.08;;;20.50;79.00;;;;;;5113475;28;20444;-67
2022/07/29 04:37:45;;;;;;;1.60;1.02;;;20.50;79.10;;;;;;5113387;28;20077;-67
2022/07/29 04:40:11;;;;;;;1.88;1.10;;;20.40;80.10;;;;;;5113294;28;20039;-67
2022/07/29 04:42:38;;;;;;;2.95;1.10;;;20.40;81.20;;;;;;5113271;28;20043;-71
2022/07/29 04:45:04;;;;;;;1.67;1.15;;;20.30;81.40;;;;;;5095052;28;20043;-67
2022/07/29 04:47:30;;;;;;;1.05;0.95;;;20.20;82.60;;;;;;5113291;28;20046;-67
2022/07/29 04:49:56;;;;;;;2.15;0.95;;;20.10;82.00;;;;;;5113326;28;20118;-67
2022/07/29 04:52:22;;;;;;;5.35;1.08;;;19.90;82.70;;;;;;5113017;28;20194;-67
2022/07/29 04:54:48;;;;;;;2.85;1.20;;;19.80;82.30;;;;;;5113178;28;20628;-68
2022/07/29 04:57:14;;;;;;;6.38;1.00;;;19.90;82.10;;;;;;5113071;28;20491;-67
2022/07/29 04:59:40;;;;;;;1.73;1.13;;;20.00;82.30;;;;;;5113080;28;20039;-67
2022/07/29 05:02:05;;;;;;;1.27;0.95;;;19.90;82.90;;;;;;5113101;28;20039;-67
2022/07/29 05:04:31;;;;;;;5.82;1.02;;;19.90;82.20;;;;;;5112993;28;20044;-67
2022/07/29 05:06:57;;;;;;;3.65;1.00;;;20.00;82.10;;;;;;5112854;28;20795;-67
2022/07/29 05:09:22;;;;;;;3.70;1.20;;;20.10;82.00;;;;;;5113088;28;20406;-67
2022/07/29 05:11:48;;;;;;;3.33;1.08;;;19.90;82.90;;;;;;5112981;28;20048;-68
2022/07/29 05:14:14;;;;;;;2.47;1.17;;;19.90;82.10;;;;;;5112923;28;20039;-66
2022/07/29 05:16:40;;;;;;;1.75;1.10;;;20.00;82.30;;;;;;5112653;28;20116;-67
2022/07/29 05:19:06;;;;;;;2.95;1.13;;;19.90;82.10;;;;;;5116157;28;20122;-66
2022/07/29 05:21:32;;;;;;;2.72;1.20;;;19.80;83.10;;;;;;5116787;28;20437;-67
2022/07/29 05:23:58;;;;;;;1.25;0.93;;;19.90;82.20;;;;;;5116829;28;20108;-67
2022/07/29 05:26:23;;;;;;;1.13;1.00;;;20.00;82.00;;;;;;5116803;28;20043;-66
2022/07/29 05:28:49;;;;;;;1.50;0.95;;;20.20;82.20;;;;;;5116345;28;20047;-67
2022/07/29 05:31:15;;;;;;;2.92;1.30;;;20.20;82.80;;;;;;5115042;28;20035;-69
2022/07/29 05:33:41;;;;;;;1.45;1.00;;;20.10;83.20;;;;;;5115340;28;20180;-67
2022/07/29 05:36:07;;;;;;;3.17;1.67;;;20.20;83.40;;;;;;5116007;28;20040;-66
2022/07/29 05:38:34;;;;;;;2.42;1.58;;;20.10;83.30;;;;;;5115499;28;20131;-67
2022/07/29 05:41:00;;;;;;;2.22;1.05;;;20.00;83.50;;;;;;5116387;28;20505;-69
2022/07/29 05:43:29;;;;;;;1.60;1.10;;;19.90;84.00;;;;;;5116378;28;20051;-68
2022/07/29 05:45:55;;;;;;;1.13;0.90;;;19.90;83.80;;;;;;5115775;28;20052;-67
2022/07/29 05:48:21;;;;;;;2.30;0.95;;;20.00;83.40;;;;;;5115939;28;20027;-66
2022/07/29 05:50:47;;;;;;;2.83;1.25;;;20.10;82.80;;;;;;5115999;28;20046;-68
2022/07/29 05:53:13;;;;;;;3.30;1.20;;;20.20;83.00;;;;;;5115953;28;20139;-66
2022/07/29 05:55:38;;;;;;;1.70;1.05;;;20.30;82.80;;;;;;5116217;28;20067;-67
2022/07/29 05:58:04;;;;;;;2.83;1.17;;;20.50;82.00;;;;;;5097704;28;20130;-66
2022/07/29 06:00:30;;;;;;;2.53;0.93;;;20.80;84.00;;;;;;5115543;28;20421;-67
2022/07/29 06:02:56;;;;;;;2.35;1.30;;;20.90;84.60;;;;;;5115616;28;20043;-67
2022/07/29 06:05:22;;;;;;;1.75;0.95;;;21.10;85.80;;;;;;5115906;28;20046;-67
2022/07/29 06:07:48;;;;;;;3.22;1.45;;;21.10;86.60;;;;;;5097637;28;20063;-66
2022/07/29 06:10:14;;;;;;;1.42;1.20;;;21.40;86.90;;;;;;5115719;28;20071;-66
2022/07/29 06:12:40;;;;;;;2.22;1.00;;;21.30;84.60;;;;;;5097046;28;20097;-68
2022/07/29 06:15:06;;;;;;;2.03;1.00;;;21.40;84.80;;;;;;5115790;28;20036;-66
2022/07/29 06:17:32;;;;;;;1.40;1.17;;;21.70;84.10;;;;;;5115736;28;20054;-72
2022/07/29 06:19:58;;;;;;;2.05;1.20;;;21.90;83.50;;;;;;5115595;28;20142;-66
2022/07/29 06:22:23;;;;;;;1.20;1.00;;;22.00;83.80;;;;;;5115604;28;20092;-67
2022/07/29 06:24:49;;;;;;;1.50;1.20;;;21.80;84.20;;;;;;5097040;28;20119;-71
2022/07/29 06:27:16;;;;;;;2.65;1.05;;;21.80;84.60;;;;;;5115160;28;20048;-66
2022/07/29 06:29:42;;;;;;;1.52;1.00;;;21.80;83.20;;;;;;5096564;28;20244;-75
2022/07/29 06:32:08;;;;;;;3.75;1.20;;;21.60;83.10;;;;;;5115379;28;20135;-66
2022/07/29 06:34:35;;;;;;;3.13;1.10;;;21.40;82.60;;;;;;5115402;28;20043;-70
2022/07/29 06:37:08;;;;;;;3.20;1.38;;;21.20;81.20;;;;;;5115360;28;20060;-68
2022/07/29 06:39:36;;;;;;;4.55;1.23;;;21.20;81.60;;;;;;5115344;28;20051;-74
2022/07/29 06:42:02;;;;;;;6.60;1.73;;;21.40;81.50;;;;;;5115288;28;20185;-67
2022/07/29 06:44:28;;;;;;;1.13;1.00;;;21.60;81.70;;;;;;5115409;28;20046;-66
2022/07/29 06:46:54;;;;;;;3.72;1.20;;;21.80;82.20;;;;;;5115174;28;20039;-67
2022/07/29 06:49:20;;;;;;;2.58;1.25;;;21.80;83.50;;;;;;5115109;28;20035;-70
2022/07/29 06:51:46;;;;;;;2.97;1.30;;;21.90;83.30;;;;;;5094931;28;20575;-66
2022/07/29 06:54:13;;;;;;;2.78;0.95;;;21.90;83.00;;;;;;5104049;28;20556;-66
2022/07/29 06:56:41;;;;;;;2.33;1.10;;;21.90;82.90;;;;;;5092822;28;20044;-66
2022/07/29 06:59:12;;;;;;;4.32;1.02;;;22.00;82.50;;;;;;5093852;28;20514;-66
2022/07/29 07:01:39;;;;;;;2.95;1.33;;;22.10;82.10;;;;;;5094211;28;20605;-66
2022/07/29 07:04:05;;;;;;;1.60;1.10;;;22.00;82.40;;;;;;5109178;28;20066;-67
2022/07/29 07:06:31;;;;;;;7.07;1.00;;;21.90;83.50;;;;;;5092179;28;20398;-66
2022/07/29 07:08:57;;;;;;;5.55;1.00;;;21.70;84.20;;;;;;5091852;28;20118;-67
2022/07/29 07:11:23;;;;;;;2.28;0.90;;;21.70;84.80;;;;;;5092151;28;20113;-67
2022/07/29 07:13:49;;;;;;;1.40;0.90;;;21.80;84.30;;;;;;5093519;28;20051;-66
2022/07/29 07:16:15;;;;;;;2.00;1.10;;;21.70;82.20;;;;;;5104816;28;20089;-67
2022/07/29 07:18:41;;;;;;;1.23;1.05;;;21.80;80.90;;;;;;5073493;28;20040;-68
2022/07/29 07:21:07;;;;;;;2.58;1.30;;;22.00;83.30;;;;;;5092825;28;20061;-68
2022/07/29 07:23:32;;;;;;;2.17;1.10;;;22.20;82.40;;;;;;5094022;28;20046;-70
2022/07/29 07:25:58;;;;;;;1.90;1.15;;;22.20;84.20;;;;;;5093952;28;20110;-68
2022/07/29 07:28:24;;;;;;;3.38;1.05;;;22.00;85.00;;;;;;5093718;28;20044;-68
2022/07/29 07:30:50;;;;;;;1.80;1.30;;;21.90;86.00;;;;;;5093641;28;21433;-69
2022/07/29 07:33:15;;;;;;;8.38;1.30;;;21.90;86.60;;;;;;5093707;28;20048;-66
2022/07/29 07:35:41;;;;;;;1.30;1.08;;;21.90;86.30;;;;;;5075688;28;20502;-67
2022/07/29 07:38:07;;;;;;;2.38;1.15;;;21.90;86.10;;;;;;5093819;28;20089;-67
2022/07/29 07:40:33;;;;;;;6.60;1.35;;;22.00;86.40;;;;;;5093461;28;20441;-67
2022/07/29 07:42:59;;;;;;;14.35;1.48;;;22.10;85.70;;;;;;5092949;28;20719;-67
2022/07/29 07:45:25;;;;;;;6.57;1.40;;;22.30;85.10;;;;;;5093402;28;20097;-66
2022/07/29 07:47:50;;;;;;;1.90;1.10;;;22.40;86.00;;;;;;5093427;28;20395;-72
2022/07/29 07:50:17;;;;;;;1.85;1.10;;;22.60;85.10;;;;;;5093548;28;20071;-66
2022/07/29 07:52:51;;;;;;;2.80;1.05;;;22.60;83.20;;;;;;5093455;28;20134;-73
2022/07/29 07:55:18;;;;;;;1.67;1.02;;;22.70;82.70;;;;;;5093198;28;20048;-66
2022/07/29 07:57:45;;;;;;;2.50;1.13;;;22.40;80.70;;;;;;5091693;28;20410;-67
2022/07/29 08:00:13;;;;;;;2.05;1.27;;;22.30;80.90;;;;;;5093179;28;20040;-66
2022/07/29 08:02:39;;;;;;;1.30;1.17;;;22.10;81.20;;;;;;5093326;28;20050;-67
2022/07/29 08:05:07;;;;;;;5.68;1.45;;;21.90;80.90;;;;;;5093343;28;20032;-66
2022/07/29 08:07:33;;;;;;;2.22;1.08;;;21.80;80.70;;;;;;5093283;28;20048;-68
2022/07/29 08:09:58;;;;;;;2.35;1.33;;;21.80;81.20;;;;;;5075088;28;20044;-68
2022/07/29 08:12:24;;;;;;;2.65;1.15;;;21.70;80.40;;;;;;5093094;28;20059;-67
2022/07/29 08:14:50;;;;;;;1.88;1.30;;;21.60;79.60;;;;;;5093259;28;20131;-66
2022/07/29 08:17:16;;;;;;;2.78;1.33;;;21.60;80.10;;;;;;5093226;28;20124;-66
2022/07/29 08:19:42;;;;;;;1.73;1.30;;;21.50;79.50;;;;;;5100799;28;20039;-66
2022/07/29 08:22:07;;;;;;;2.05;0.90;;;21.50;80.20;;;;;;5112865;28;20048;-66
2022/07/29 08:24:42;;;;;;;2.10;1.00;;;21.70;80.20;;;;;;5112885;28;20027;-66
2022/07/29 08:27:10;;;;;;;5.70;1.30;;;21.80;80.10;;;;;;5113459;28;20108;-67
2022/07/29 08:29:36;;;;;;;3.45;1.48;;;21.60;79.00;;;;;;5113181;28;20452;-66
2022/07/29 08:32:02;;;;;;;2.38;1.38;;;21.60;79.70;;;;;;5113085;28;20043;-66
2022/07/29 08:34:28;;;;;;;1.92;1.35;;;21.50;79.40;;;;;;5112000;28;20394;-66
2022/07/29 08:36:55;;;;;;;3.88;1.60;;;21.60;80.00;;;;;;5113334;28;20122;-67
2022/07/29 08:39:22;;;;;;;3.47;1.27;;;21.60;80.20;;;;;;5113344;28;20071;-69
2022/07/29 08:41:48;;;;;;;1.90;1.10;;;21.40;80.50;;;;;;5107729;28;20043;-66
2022/07/29 08:44:23;;;;;;;1.65;1.27;;;21.50;80.90;;;;;;5086806;28;20073;-67
2022/07/29 08:46:50;;;;;;;4.68;1.15;;;21.70;80.70;;;;;;5103610;28;20410;-68
2022/07/29 08:49:17;;;;;;;6.68;1.27;;;21.70;81.30;;;;;;5108358;28;20116;-67
2022/07/29 08:51:45;;;;;;;5.07;1.27;;;22.00;81.00;;;;;;5110900;28;20043;-74
2022/07/29 08:54:18;;;;;;;2.25;1.38;;;22.00;81.20;;;;;;5114159;28;20039;-70
2022/07/29 08:56:45;;;;;;;5.47;1.33;;;21.80;81.00;;;;;;5114754;28;20076;-68
2022/07/29 08:59:12;;;;;;;5.55;1.60;;;21.90;81.10;;;;;;5114461;28;20046;-67
2022/07/29 09:01:39;;;;;;;1.63;1.20;;;22.00;81.60;;;;;;5114740;28;20036;-72
2022/07/29 09:04:10;;;;;;;2.33;1.30;;;22.20;81.10;;;;;;5096252;28;20040;-65
2022/07/29 09:06:49;;;;;;;6.28;1.40;;;22.20;80.80;;;;;;5114914;28;20047;-68
2022/07/29 09:09:15;;;;;;;2.58;1.52;;;22.20;80.90;;;;;;5114662;28;20110;-65
2022/07/29 09:11:42;;;;;;;2.60;1.42;;;22.00;81.30;;;;;;5114823;28;20044;-66
2022/07/29 09:14:10;;;;;;;4.47;1.30;;;22.00;80.50;;;;;;5114679;28;20047;-66
2022/07/29 09:16:54;;;;;;;7.72;1.50;;;22.10;81.20;;;;;;5114770;28;20035;-66
2022/07/29 09:19:34;;;;;;;8.07;1.52;;;22.20;80.50;;;;;;5114813;28;20545;-66
2022/07/29 09:22:02;;;;;;;5.15;1.50;;;22.20;81.10;;;;;;5097114;28;20036;-66
2022/07/29 09:24:38;;;;;;;2.45;1.58;;;21.90;80.90;;;;;;5115608;28;20073;-67
2022/07/29 09:27:10;;;;;;;5.05;1.45;;;22.00;81.50;;;;;;5114609;28;20067;-66
2022/07/29 09:29:37;;;;;;;2.10;1.00;;;22.10;80.60;;;;;;5116483;28;20081;-66
2022/07/29 09:32:09;;;;;;;9.00;1.60;;;22.30;80.50;;;;;;5116342;28;20043;-72
2022/07/29 09:34:35;;;;;;;4.68;1.60;;;22.20;80.30;;;;;;5116421;28;20506;-66
2022/07/29 09:37:00;;;;;;;6.70;1.45;;;22.20;79.90;;;;;;5116217;28;20081;-66
2022/07/29 09:39:32;;;;;;;4.38;1.23;;;22.40;79.40;;;;;;5114808;28;20121;-66
2022/07/29 09:42:00;;;;;;;5.68;1.38;;;22.50;79.20;;;;;;5114706;28;20055;-65
2022/07/29 09:44:27;;;;;;;6.13;1.20;;;22.50;78.50;;;;;;5114782;28;20040;-66
2022/07/29 09:47:06;;;;;;;4.35;1.70;;;22.60;78.90;;;;;;5113982;28;20066;-66
2022/07/29 09:49:34;;;;;;;2.45;1.33;;;22.70;78.80;;;;;;5113985;28;20046;-67
2022/07/29 09:52:03;;;;;;;2.65;1.50;;;22.70;78.80;;;;;;5113676;28;20048;-66
2022/07/29 09:54:34;;;;;;;2.53;1.35;;;22.70;78.50;;;;;;5114137;28;20047;-66
2022/07/29 09:56:59;;;;;;;2.83;1.42;;;22.70;79.40;;;;;;5114165;28;20062;-70
2022/07/29 09:59:26;;;;;;;6.93;1.83;;;22.60;77.20;;;;;;5114519;28;20502;-66
2022/07/29 10:01:53;;;;;;;2.72;1.38;;;22.70;78.50;;;;;;5115102;28;20032;-67
2022/07/29 10:04:20;;;;;;;1.70;1.30;;;22.80;79.00;;;;;;5097197;28;20066;-67
2022/07/29 10:07:00;;;;;;;3.38;1.65;;;22.80;78.40;;;;;;5115790;28;20465;-66
2022/07/29 10:09:26;;;;;;;4.05;1.23;;;22.80;78.70;;;;;;5110709;28;20548;-67
2022/07/29 10:12:14;;;;;;;4.55;1.70;;;22.80;79.20;;;;;;5098666;28;20047;-66
2022/07/29 10:14:41;;;;;;;3.28;1.30;;;22.90;78.90;;;;;;5113499;28;20088;-72
2022/07/29 10:17:09;;;;;;;4.82;1.63;;;23.00;79.40;;;;;;5113382;28;20036;-70
2022/07/29 10:19:37;;;;;;;1.55;1.15;;;22.90;79.10;;;;;;5095514;28;20056;-71
2022/07/29 10:22:07;;;;;;;9.00;1.50;;;22.90;79.40;;;;;;5113186;28;20088;-72
2022/07/29 10:24:35;;;;;;;5.68;1.40;;;22.90;79.10;;;;;;5112244;28;20087;-70
2022/07/29 10:27:02;;;;;;;3.50;1.45;;;22.70;78.70;;;;;;5113086;28;20039;-71
2022/07/29 10:29:31;;;;;;;2.13;1.33;;;22.80;79.30;;;;;;5112554;28;20050;-72
2022/07/29 10:32:15;;;;;;;30.27;1.70;;;22.70;78.40;;;;;;5112554;28;20518;-71
2022/07/29 10:34:47;;;;;;;4.93;1.58;;;22.80;79.30;;;;;;5113175;28;20044;-67
2022/07/29 10:37:38;;;;;;;5.25;1.48;;;23.20;93.30;;;;;;5112620;28;20069;-65
2022/07/29 10:43:20;;;;;;;3.55;1.45;;;23.40;78.50;;;;;;5113952;28;20035;-71
2022/07/29 10:45:49;;;;;;;3.50;1.60;;;23.60;79.60;;;;;;5112897;28;20056;-66
2022/07/29 10:48:15;;;;;;;3.08;1.17;;;23.20;78.50;;;;;;5112560;28;20063;-71
2022/07/29 10:50:55;;;;;;;1.88;1.20;;;23.30;80.00;;;;;;5113017;28;20097;-70
2022/07/29 10:53:45;;;;;;;2.38;1.55;;;23.10;93.20;;;;;;5113251;28;20517;-71
2022/07/29 10:56:28;;;;;;;2.00;1.33;;;;;;;;;;5111892;28;20050;-72
2022/07/29 10:59:21;;;;;;;7.93;1.77;;;24.00;93.70;;;;;;5094622;28;20502;-66
2022/07/29 11:01:49;;;;;;;2.30;1.40;;;24.00;76.50;;;;;;5094738;28;20560;-69
2022/07/29 11:04:15;;;;;;;3.50;1.50;;;23.80;75.90;;;;;;5112547;28;20045;-70
2022/07/29 11:07:00;;;;;;;3.03;1.50;;;24.20;89.60;;;;;;5112780;28;20075;-67
2022/07/29 11:09:26;;;;;;;3.20;1.73;;;24.60;74.80;;;;;;5113892;28;20049;-66
2022/07/29 11:11:52;;;;;;;1.30;1.10;;;24.70;73.40;;;;;;5114080;28;20046;-67
2022/07/29 11:14:52;;;;;;;2.08;1.30;;;24.90;75.30;;;;;;5113499;28;20380;-68
2022/07/29 11:17:18;;;;;;;6.03;1.40;;;25.00;73.40;;;;;;5113887;28;20035;-67
2022/07/29 11:19:44;;;;;;;3.50;1.42;;;24.70;73.50;;;;;;5111373;28;20038;-67
2022/07/29 11:22:11;;;;;;;6.75;1.30;;;24.90;72.90;;;;;;5112082;28;20053;-70
2022/07/29 11:24:37;;;;;;;3.10;1.55;;;24.90;73.70;;;;;;5114198;28;20114;-67
2022/07/29 11:27:22;;;;;;;3.10;2.28;;;25.20;72.60;;;;;;5112712;28;20070;-66
2022/07/29 11:29:51;;;;;;;3.47;1.92;;;24.80;71.40;;;;;;5091332;28;20048;-67
2022/07/29 11:32:19;;;;;;;1.17;1.08;;;24.30;71.90;;;;;;5091974;28;20059;-66
2022/07/29 11:34:47;;;;;;;2.55;1.30;;;24.90;72.30;;;;;;5092595;28;20146;-66
2022/07/29 11:37:12;;;;;;;1.60;1.38;;;24.60;71.10;;;;;;5091480;28;20143;-66
2022/07/29 11:40:09;;;;;;;2.08;1.48;;;24.20;71.90;;;;;;5090946;28;20119;-66
2022/07/29 11:42:35;;;;;;;1.52;1.13;;;24.60;71.40;;;;;;5090858;28;20566;-66
2022/07/29 11:45:21;;;;;;;1.80;1.30;;;24.70;70.50;;;;;;5072395;28;20044;-67
2022/07/29 11:47:50;;;;;;;5.20;1.23;;;24.90;70.40;;;;;;5090039;28;20039;-67
2022/07/29 11:50:27;;;;;;;1.98;1.20;;;25.10;71.10;;;;;;5089962;28;20043;-67
2022/07/29 11:52:53;;;;;;;2.38;1.23;;;25.20;70.30;;;;;;5090098;28;20059;-67
2022/07/29 11:55:24;;;;;;;6.28;1.23;;;25.70;69.70;;;;;;5090526;28;20093;-66
2022/07/29 11:57:59;;;;;;;6.25;1.30;;;25.50;68.20;;;;;;5090275;28;20058;-66
2022/07/29 12:00:37;;;;;;;2.25;1.30;;;25.60;69.30;;;;;;5090615;28;20043;-67
2022/07/29 12:03:07;;;;;;;2.47;1.20;;;25.90;68.90;;;;;;5073797;27;20415;-67
2022/07/29 12:05:36;;;;;;;11.13;1.25;;;26.00;69.10;;;;;;5109054;28;20039;-67
2022/07/29 12:08:08;;;;;;;4.22;1.23;;;25.80;67.70;;;;;;5089547;28;20044;-67
2022/07/29 12:10:36;;;;;;;1.15;0.90;;;25.60;67.90;;;;;;5095204;28;20384;-67
2022/07/29 12:13:02;;;;;;;2.38;1.33;;;25.60;68.00;;;;;;5109857;28;20047;-67
2022/07/29 12:15:28;;;;;;;4.50;1.40;;;26.00;68.00;;;;;;5092522;28;20078;-66
2022/07/29 12:17:54;;;;;;;2.45;1.38;;;25.80;67.80;;;;;;5106453;28;20067;-67
2022/07/29 12:20:25;;;;;;;2.55;1.23;;;25.50;67.90;;;;;;5109108;28;20082;-67
2022/07/29 12:22:53;;;;;;;4.95;1.30;;;26.20;68.00;;;;;;5108783;28;20350;-66
2022/07/29 12:25:19;;;;;;;2.63;1.35;;;26.00;67.80;;;;;;5109006;28;20054;-67
2022/07/29 12:27:45;;;;;;;3.05;1.50;;;25.80;68.50;;;;;;5107529;28;20384;-67
2022/07/29 12:30:14;;;;;;;1.17;1.08;;;25.80;67.70;;;;;;5090186;28;20043;-67
2022/07/29 12:32:43;;;;;;;2.05;1.10;;;25.70;67.90;;;;;;5090171;28;20082;-67
2022/07/29 12:35:14;;;;;;;2.67;1.00;;;25.80;68.40;;;;;;5090874;28;20074;-66
2022/07/29 12:37:42;;;;;;;2.55;1.23;;;25.80;69.00;;;;;;5090640;28;20054;-66
2022/07/29 12:40:10;;;;;;;1.42;1.15;;;26.10;68.50;;;;;;5098442;28;20150;-66
2022/07/29 12:42:37;;;;;;;1.38;1.13;;;26.40;67.70;;;;;;5111197;28;20414;-66
2022/07/29 12:45:04;;;;;;;3.22;1.35;;;25.90;67.60;;;;;;5110456;28;20088;-67
2022/07/29 12:47:30;;;;;;;2.85;1.52;;;25.80;68.20;;;;;;5111060;28;20051;-67
2022/07/29 12:50:17;;;;;;;2.45;1.30;;;25.90;67.30;;;;;;5111332;28;20513;-66
2022/07/29 12:52:44;;;;;;;4.88;1.23;;;26.10;67.60;;;;;;5110380;28;20121;-67
2022/07/29 12:55:11;;;;;;;3.10;1.45;;;25.90;66.80;;;;;;5110970;28;20040;-67
2022/07/29 12:57:47;;;;;;;1.83;1.10;;;26.30;66.70;;;;;;5092925;28;20039;-67
2022/07/29 13:00:14;;;;;;;2.35;1.30;;;26.10;67.80;;;;;;5110567;28;20043;-66
2022/07/29 13:02:42;;;;;;;3.40;1.27;;;26.10;67.20;;;;;;5105529;28;20515;-66